Time;durP1;ratioP1;P1;durP2;ratioP2;P2;SDS_P1;SDS_P2;PMS_P1;PMS_P2;Temp;Humidity;BMP_temperature;BMP_pressure;BME280_temperature;BME280_humidity;BME280_pressure;Samples;Min_cycle;Max_cycle;Signal;HPM_P1;HPM_P2
2023/06/13 00:00:25;;;;;;;7.03;4.37;;;21.30;43.30;;;;;;4952212;28;20055;-79
2023/06/13 00:02:53;;;;;;;7.35;3.92;;;21.30;43.30;;;;;;4931639;29;20052;-78
2023/06/13 00:05:21;;;;;;;7.00;4.20;;;21.10;43.50;;;;;;4931643;29;20885;-79
2023/06/13 00:07:49;;;;;;;7.90;4.15;;;21.10;43.50;;;;;;4931513;28;20067;-78
2023/06/13 00:10:20;;;;;;;6.70;3.80;;;21.10;43.50;;;;;;4943334;28;20063;-79
2023/06/13 00:12:51;;;;;;;7.27;4.50;;;21.00;43.70;;;;;;4931268;29;20060;-78
2023/06/13 00:15:18;;;;;;;9.48;4.50;;;21.00;43.50;;;;;;4931219;29;20127;-78
2023/06/13 00:17:47;;;;;;;7.55;4.82;;;20.90;43.70;;;;;;4935134;28;20514;-78
2023/06/13 00:20:15;;;;;;;7.47;5.00;;;20.80;43.70;;;;;;4947015;28;20150;-79
2023/06/13 00:22:45;;;;;;;8.02;5.05;;;20.80;43.70;;;;;;4954615;28;20841;-79
2023/06/13 00:25:13;;;;;;;7.63;4.93;;;20.70;43.50;;;;;;4954457;28;20562;-78
2023/06/13 00:27:41;;;;;;;9.60;5.15;;;20.60;43.50;;;;;;4948387;28;20761;-78
2023/06/13 00:30:10;;;;;;;7.35;4.82;;;20.60;43.60;;;;;;4932471;28;20448;-79
2023/06/13 00:32:37;;;;;;;7.60;5.30;;;20.50;43.80;;;;;;4925815;28;20110;-79
2023/06/13 00:35:08;;;;;;;7.63;5.18;;;20.50;43.80;;;;;;4931273;28;20044;-79
2023/06/13 00:37:38;;;;;;;7.80;5.60;;;20.40;43.80;;;;;;4932234;28;20059;-78
2023/06/13 00:40:07;;;;;;;11.05;5.45;;;20.40;43.80;;;;;;4948396;28;20047;-79
2023/06/13 00:42:35;;;;;;;8.85;5.60;;;20.30;43.90;;;;;;4948867;28;21088;-79
2023/06/13 00:45:21;;;;;;;7.88;4.82;;;20.30;44.00;;;;;;4950606;28;20079;-79
2023/06/13 00:47:54;;;;;;;7.90;5.15;;;20.30;43.90;;;;;;4933965;28;20608;-78
2023/06/13 00:50:26;;;;;;;8.97;5.27;;;20.20;44.20;;;;;;4949866;28;20086;-78
2023/06/13 00:52:56;;;;;;;7.05;5.03;;;20.20;44.30;;;;;;4948243;28;20060;-78
2023/06/13 00:55:26;;;;;;;11.25;5.68;;;20.10;44.20;;;;;;4933749;28;20067;-78
2023/06/13 00:57:56;;;;;;;10.60;5.45;;;20.00;44.20;;;;;;4951196;28;20092;-79
2023/06/13 01:00:26;;;;;;;8.60;5.10;;;20.00;44.10;;;;;;4933498;28;20106;-78
2023/06/13 01:02:57;;;;;;;8.57;5.40;;;20.00;44.20;;;;;;4944079;28;20055;-79
2023/06/13 01:05:27;;;;;;;8.82;5.35;;;19.90;44.30;;;;;;4949502;28;20343;-78
2023/06/13 01:07:57;;;;;;;9.07;5.70;;;19.90;44.30;;;;;;4943648;28;20051;-78
2023/06/13 01:10:26;;;;;;;7.45;4.80;;;19.80;44.40;;;;;;4949428;28;20425;-78
2023/06/13 01:13:01;;;;;;;10.35;5.40;;;19.70;44.60;;;;;;4948403;28;20082;-78
2023/06/13 01:15:32;;;;;;;8.17;5.27;;;19.70;44.90;;;;;;4932723;28;20063;-78
2023/06/13 01:18:03;;;;;;;7.65;5.03;;;19.70;45.20;;;;;;4949616;28;20043;-78
2023/06/13 01:20:31;;;;;;;8.73;5.05;;;19.70;45.30;;;;;;4948149;28;20052;-78
2023/06/13 01:23:14;;;;;;;8.65;5.13;;;19.70;45.40;;;;;;4938819;28;20044;-79
2023/06/13 01:25:57;;;;;;;8.70;5.72;;;19.70;45.50;;;;;;4923368;29;20495;-79
2023/06/13 01:28:28;;;;;;;9.40;4.97;;;19.60;45.30;;;;;;4955240;28;20487;-78
2023/06/13 01:30:57;;;;;;;8.80;5.22;;;19.50;45.30;;;;;;4944001;28;20159;-79
2023/06/13 01:33:25;;;;;;;7.95;5.40;;;19.50;45.50;;;;;;4948082;28;20051;-78
2023/06/13 01:35:53;;;;;;;7.90;5.10;;;19.50;45.70;;;;;;4930965;28;20135;-78
2023/06/13 01:38:23;;;;;;;9.15;4.90;;;19.40;45.60;;;;;;4931587;28;20051;-78
2023/06/13 01:40:50;;;;;;;7.83;4.70;;;19.30;45.70;;;;;;4950423;28;20513;-78
2023/06/13 01:43:17;;;;;;;7.53;4.88;;;19.30;45.80;;;;;;4929773;29;20051;-78
2023/06/13 01:45:45;;;;;;;8.68;5.10;;;19.20;46.00;;;;;;4946126;28;20379;-79
2023/06/13 01:48:23;;;;;;;10.02;5.50;;;19.20;46.10;;;;;;4963581;28;20048;-78
2023/06/13 01:50:58;;;;;;;9.50;5.75;;;19.20;46.20;;;;;;4950572;28;20518;-78
2023/06/13 01:53:28;;;;;;;8.93;5.10;;;19.10;46.40;;;;;;4948550;28;20669;-79
2023/06/13 01:56:00;;;;;;;8.48;5.40;;;19.20;46.50;;;;;;4947938;28;20606;-79
2023/06/13 01:58:32;;;;;;;8.35;5.60;;;19.10;46.60;;;;;;4949381;28;20056;-79
2023/06/13 02:01:04;;;;;;;7.97;5.50;;;19.10;46.80;;;;;;4942312;28;20533;-78
2023/06/13 02:03:32;;;;;;;8.90;5.50;;;19.10;46.90;;;;;;4932060;28;20091;-79
2023/06/13 02:05:59;;;;;;;8.33;5.40;;;19.10;46.90;;;;;;4947283;28;20059;-79
2023/06/13 02:08:28;;;;;;;9.50;5.80;;;19.10;47.00;;;;;;4931169;28;20089;-78
2023/06/13 02:10:55;;;;;;;8.55;5.30;;;19.10;47.00;;;;;;4929305;29;20063;-79
2023/06/13 02:13:23;;;;;;;8.75;5.20;;;19.10;46.90;;;;;;4937648;28;20100;-78
2023/06/13 02:15:50;;;;;;;9.55;5.22;;;19.10;47.20;;;;;;4927620;28;20084;-78
2023/06/13 02:18:18;;;;;;;9.00;5.43;;;19.10;47.10;;;;;;4948136;28;20051;-79
2023/06/13 02:20:45;;;;;;;10.40;5.55;;;19.00;47.20;;;;;;4945168;28;20215;-79
2023/06/13 02:23:13;;;;;;;9.05;5.50;;;19.00;47.20;;;;;;4952387;28;20055;-78
2023/06/13 02:25:41;;;;;;;26.55;6.90;;;19.00;47.40;;;;;;4924574;28;20135;-79
2023/06/13 02:28:08;;;;;;;36.55;8.13;;;19.00;47.60;;;;;;4949947;28;20052;-79
2023/06/13 02:30:35;;;;;;;16.87;5.80;;;18.90;47.70;;;;;;4947751;28;20449;-78
2023/06/13 02:33:02;;;;;;;10.10;5.30;;;18.90;47.70;;;;;;4922495;28;20048;-79
2023/06/13 02:35:30;;;;;;;7.15;5.00;;;18.90;47.70;;;;;;4949265;28;20066;-78
2023/06/13 02:37:57;;;;;;;8.35;5.38;;;18.80;47.60;;;;;;4948617;28;20542;-79
2023/06/13 02:40:24;;;;;;;8.90;5.50;;;18.80;47.60;;;;;;4933654;28;20556;-78
2023/06/13 02:42:52;;;;;;;9.40;5.20;;;18.70;47.70;;;;;;4935569;28;20127;-78
2023/06/13 02:45:19;;;;;;;8.80;5.43;;;18.70;47.70;;;;;;4951452;28;20059;-79
2023/06/13 02:47:46;;;;;;;8.23;5.45;;;18.60;47.70;;;;;;4952188;28;20062;-79
2023/06/13 02:50:13;;;;;;;8.68;5.30;;;18.60;48.00;;;;;;4935231;28;20588;-79
2023/06/13 02:52:42;;;;;;;8.18;5.40;;;18.60;48.00;;;;;;4951047;28;20051;-77
2023/06/13 02:55:10;;;;;;;8.73;5.23;;;18.50;48.10;;;;;;4950303;28;20056;-79
2023/06/13 02:57:38;;;;;;;9.52;5.82;;;18.50;48.10;;;;;;4935250;28;20059;-79
2023/06/13 03:00:09;;;;;;;8.10;5.30;;;18.50;48.10;;;;;;4932342;28;20168;-79
2023/06/13 03:02:37;;;;;;;7.45;5.10;;;18.50;48.40;;;;;;4932201;28;20048;-79
2023/06/13 03:05:07;;;;;;;8.63;5.35;;;18.40;48.70;;;;;;4932623;28;20498;-78
2023/06/13 03:07:35;;;;;;;9.70;5.10;;;18.40;48.90;;;;;;4950751;28;20561;-78
2023/06/13 03:10:05;;;;;;;9.43;5.18;;;18.40;48.90;;;;;;4948147;28;20487;-78
2023/06/13 03:12:37;;;;;;;9.15;5.25;;;18.40;49.10;;;;;;4950461;28;20047;-78
2023/06/13 03:15:06;;;;;;;8.18;5.03;;;18.30;49.20;;;;;;4933348;28;20509;-78
2023/06/13 03:17:34;;;;;;;7.63;4.82;;;18.30;49.20;;;;;;4935399;28;20052;-78
2023/06/13 03:20:05;;;;;;;8.33;5.37;;;18.20;49.00;;;;;;4932060;29;20107;-78
2023/06/13 03:22:33;;;;;;;8.57;5.43;;;18.20;49.10;;;;;;4951535;28;20044;-79
2023/06/13 03:25:04;;;;;;;9.70;5.40;;;18.20;49.30;;;;;;4952621;28;20091;-78
2023/06/13 03:27:35;;;;;;;8.57;5.10;;;18.10;49.30;;;;;;4935265;28;20092;-79
2023/06/13 03:30:04;;;;;;;8.75;5.13;;;18.10;49.30;;;;;;4935050;28;20048;-79
2023/06/13 03:32:31;;;;;;;7.27;5.03;;;18.10;49.30;;;;;;4934620;28;20498;-78
2023/06/13 03:35:00;;;;;;;8.35;5.25;;;18.00;49.30;;;;;;4950833;28;20151;-79
2023/06/13 03:37:27;;;;;;;8.18;5.60;;;18.00;49.50;;;;;;4950330;28;20079;-78
2023/06/13 03:39:55;;;;;;;8.40;5.50;;;18.00;49.50;;;;;;4929589;28;20062;-78
2023/06/13 03:42:22;;;;;;;9.10;5.57;;;18.00;49.60;;;;;;4949115;28;20873;-78
2023/06/13 03:44:51;;;;;;;8.60;4.90;;;18.00;49.70;;;;;;4951223;28;20115;-79
2023/06/13 03:47:18;;;;;;;8.13;5.00;;;17.90;49.90;;;;;;4948055;28;20056;-78
2023/06/13 03:49:45;;;;;;;9.18;5.38;;;17.90;50.20;;;;;;4950743;28;20103;-78
2023/06/13 03:52:12;;;;;;;12.70;5.38;;;17.90;50.10;;;;;;4950490;28;20040;-79
2023/06/13 03:54:39;;;;;;;7.82;4.97;;;17.80;50.30;;;;;;4934981;28;20091;-79
2023/06/13 03:57:07;;;;;;;10.77;5.87;;;17.80;50.50;;;;;;4952514;28;20146;-79
2023/06/13 03:59:35;;;;;;;8.93;5.13;;;17.80;50.50;;;;;;4932731;28;20529;-78
2023/06/13 04:02:03;;;;;;;9.90;5.63;;;17.80;50.60;;;;;;4950287;28;20044;-79
2023/06/13 04:04:32;;;;;;;10.35;5.55;;;17.80;50.70;;;;;;4948893;28;20150;-78
2023/06/13 04:07:04;;;;;;;9.32;5.25;;;17.80;50.50;;;;;;4946978;28;20048;-78
2023/06/13 04:09:31;;;;;;;10.33;4.97;;;17.80;50.50;;;;;;4950245;28;20575;-78
2023/06/13 04:11:57;;;;;;;9.25;4.95;;;17.70;50.70;;;;;;4950091;28;20074;-78
2023/06/13 04:14:24;;;;;;;8.77;5.15;;;17.70;50.90;;;;;;4934263;28;20052;-78
2023/06/13 04:16:52;;;;;;;7.95;4.88;;;17.70;50.90;;;;;;4933546;28;20504;-78
2023/06/13 04:19:20;;;;;;;8.18;4.82;;;17.60;51.00;;;;;;4950708;28;20051;-79
2023/06/13 04:21:48;;;;;;;7.50;4.87;;;17.60;51.00;;;;;;4933003;28;20048;-79
2023/06/13 04:24:15;;;;;;;8.07;4.63;;;17.60;51.00;;;;;;4934120;28;20143;-77
2023/06/13 04:26:45;;;;;;;7.90;5.15;;;17.60;51.10;;;;;;4930758;29;20048;-78
2023/06/13 04:29:13;;;;;;;7.65;4.90;;;17.60;51.00;;;;;;4960541;28;20493;-78
2023/06/13 04:31:40;;;;;;;8.15;5.20;;;17.60;51.30;;;;;;4925975;28;20058;-78
2023/06/13 04:34:08;;;;;;;8.73;4.73;;;17.60;51.30;;;;;;4945713;28;20056;-78
2023/06/13 04:36:38;;;;;;;9.48;5.10;;;17.60;51.40;;;;;;4931011;29;20052;-78
2023/06/13 04:39:06;;;;;;;8.15;4.55;;;17.60;51.50;;;;;;4933403;28;20086;-79
2023/06/13 04:41:34;;;;;;;7.57;4.57;;;17.60;51.50;;;;;;4945113;28;20053;-77
2023/06/13 04:44:05;;;;;;;8.35;4.80;;;17.60;51.40;;;;;;4946455;28;20456;-79
2023/06/13 04:46:32;;;;;;;7.23;4.27;;;17.60;51.40;;;;;;4949926;28;20047;-77
2023/06/13 04:49:00;;;;;;;6.65;4.60;;;17.50;51.20;;;;;;4950132;28;20512;-77
2023/06/13 04:51:27;;;;;;;8.60;4.30;;;17.60;51.20;;;;;;4950218;28;20060;-77
2023/06/13 04:53:58;;;;;;;8.75;4.30;;;17.50;51.20;;;;;;4949663;28;20146;-78
2023/06/13 04:56:26;;;;;;;8.25;4.40;;;17.50;51.30;;;;;;4950043;28;20135;-77
2023/06/13 04:58:53;;;;;;;4.60;2.67;;;17.60;51.20;;;;;;4949463;28;20521;-75
2023/06/13 05:01:21;;;;;;;6.55;3.60;;;17.50;51.40;;;;;;4946072;28;20066;-75
2023/06/13 05:03:51;;;;;;;6.65;3.25;;;17.50;52.10;;;;;;4945515;28;20063;-76
2023/06/13 05:06:18;;;;;;;7.75;4.15;;;17.60;52.40;;;;;;4943606;28;20082;-75
2023/06/13 05:08:46;;;;;;;9.10;4.22;;;17.60;52.40;;;;;;4944197;28;20052;-75
2023/06/13 05:11:14;;;;;;;8.63;4.03;;;17.60;52.30;;;;;;4939673;28;20056;-75
2023/06/13 05:13:42;;;;;;;6.68;3.80;;;17.60;52.20;;;;;;4942421;28;20063;-75
2023/06/13 05:16:09;;;;;;;6.18;3.75;;;17.70;52.10;;;;;;4943465;28;20060;-75
2023/06/13 05:18:40;;;;;;;7.65;3.90;;;17.70;52.00;;;;;;4942842;28;20048;-75
2023/06/13 05:21:08;;;;;;;7.18;4.30;;;17.80;52.00;;;;;;4938710;28;20048;-75
2023/06/13 05:23:38;;;;;;;7.43;4.20;;;17.80;52.00;;;;;;4939551;28;20047;-75
2023/06/13 05:26:05;;;;;;;8.02;3.63;;;17.80;52.00;;;;;;4946244;28;20043;-75
2023/06/13 05:28:34;;;;;;;6.90;4.10;;;17.80;51.90;;;;;;4942204;28;20060;-75
2023/06/13 05:31:02;;;;;;;6.30;3.70;;;17.80;51.80;;;;;;4945786;28;20056;-75
2023/06/13 05:33:29;;;;;;;7.75;4.00;;;17.90;51.70;;;;;;4946736;28;20059;-75
2023/06/13 05:35:56;;;;;;;7.57;3.70;;;18.00;51.70;;;;;;4945386;28;20055;-75
2023/06/13 05:38:23;;;;;;;6.65;3.72;;;18.00;51.70;;;;;;4946158;28;20062;-75
2023/06/13 05:40:51;;;;;;;8.85;3.92;;;18.00;51.70;;;;;;4938911;28;20670;-75
2023/06/13 05:43:19;;;;;;;7.22;3.83;;;18.00;51.70;;;;;;4947816;28;20098;-75
2023/06/13 05:45:48;;;;;;;6.10;3.80;;;18.10;51.70;;;;;;4941332;28;20047;-75
2023/06/13 05:48:16;;;;;;;7.47;3.67;;;18.10;51.60;;;;;;4946621;28;20059;-75
2023/06/13 05:50:44;;;;;;;5.93;3.92;;;18.20;51.50;;;;;;4948103;28;20050;-75
2023/06/13 05:53:11;;;;;;;5.47;3.50;;;18.20;51.50;;;;;;4947054;28;20055;-74
2023/06/13 05:55:38;;;;;;;7.38;3.75;;;18.20;51.50;;;;;;4946977;28;20071;-74
2023/06/13 05:58:06;;;;;;;8.55;4.20;;;18.20;51.30;;;;;;4929438;28;20051;-74
2023/06/13 06:00:33;;;;;;;9.53;4.10;;;18.20;51.20;;;;;;4949679;28;20055;-75
2023/06/13 06:03:01;;;;;;;7.05;3.70;;;18.30;51.30;;;;;;4945713;28;20425;-75
2023/06/13 06:05:29;;;;;;;6.88;4.00;;;18.30;51.20;;;;;;4949211;28;20146;-75
2023/06/13 06:07:56;;;;;;;7.80;4.03;;;18.30;51.10;;;;;;4946345;28;20052;-73
2023/06/13 06:10:23;;;;;;;6.93;3.90;;;18.30;51.00;;;;;;4945561;28;20063;-74
2023/06/13 06:12:50;;;;;;;6.53;3.80;;;18.40;50.90;;;;;;4943559;28;20052;-74
2023/06/13 06:15:18;;;;;;;7.03;3.65;;;18.40;50.70;;;;;;4943564;28;20134;-74
2023/06/13 06:17:45;;;;;;;6.50;3.88;;;18.40;50.60;;;;;;4940795;28;20595;-74
2023/06/13 06:20:13;;;;;;;6.60;3.72;;;18.40;50.70;;;;;;4947024;28;20063;-74
2023/06/13 06:22:41;;;;;;;6.43;3.90;;;18.40;50.60;;;;;;4948324;28;20134;-74
2023/06/13 06:25:12;;;;;;;6.60;4.10;;;18.50;50.60;;;;;;4941056;28;21211;-74
2023/06/13 06:27:40;;;;;;;7.47;4.03;;;18.50;50.40;;;;;;4947785;28;20056;-75
2023/06/13 06:30:08;;;;;;;6.05;4.13;;;18.50;50.30;;;;;;4946166;28;20566;-75
2023/06/13 06:32:35;;;;;;;9.02;4.22;;;18.60;50.30;;;;;;4946001;28;20063;-75
2023/06/13 06:35:04;;;;;;;9.43;4.40;;;18.60;50.30;;;;;;4941606;28;20052;-75
2023/06/13 06:37:32;;;;;;;14.10;4.10;;;18.60;50.30;;;;;;4951714;28;20060;-75
2023/06/13 06:40:04;;;;;;;7.10;4.35;;;18.60;50.40;;;;;;4926446;28;20059;-75
2023/06/13 06:42:31;;;;;;;7.75;3.95;;;18.70;50.20;;;;;;4986414;23;20509;-75
2023/06/13 06:45:09;;;;;;;5.85;3.97;;;18.70;50.10;;;;;;4951480;28;20793;-75
2023/06/13 06:47:37;;;;;;;6.63;4.00;;;18.70;50.00;;;;;;4983193;28;20653;-74
2023/06/13 06:50:04;;;;;;;7.03;4.73;;;18.80;49.90;;;;;;4968812;28;20047;-74
2023/06/13 06:52:33;;;;;;;10.38;5.00;;;18.80;49.90;;;;;;4968888;28;20058;-74
2023/06/13 06:55:00;;;;;;;8.25;4.50;;;18.80;49.50;;;;;;4968879;28;20493;-74
2023/06/13 06:57:27;;;;;;;7.38;4.00;;;18.90;49.40;;;;;;4971199;28;20596;-73
2023/06/13 06:59:54;;;;;;;6.60;4.25;;;18.90;49.60;;;;;;4949683;28;20127;-73
2023/06/13 07:02:22;;;;;;;8.40;4.40;;;18.90;49.50;;;;;;4959072;28;21004;-74
2023/06/13 07:04:49;;;;;;;9.20;4.22;;;19.00;49.40;;;;;;4963258;28;20414;-75
2023/06/13 07:07:16;;;;;;;7.28;4.40;;;19.00;49.40;;;;;;4967255;28;20507;-75
2023/06/13 07:09:44;;;;;;;7.93;4.47;;;19.00;49.40;;;;;;4964286;28;20082;-75
2023/06/13 07:12:12;;;;;;;7.43;4.20;;;19.10;49.20;;;;;;4983349;28;20130;-74
2023/06/13 07:14:40;;;;;;;6.97;4.20;;;19.10;49.10;;;;;;4965513;28;20082;-75
2023/06/13 07:17:07;;;;;;;7.13;4.20;;;19.10;48.90;;;;;;4984932;28;20075;-73
2023/06/13 07:19:34;;;;;;;7.43;4.07;;;19.20;48.80;;;;;;4966391;28;20051;-74
2023/06/13 07:22:02;;;;;;;8.10;4.35;;;19.20;48.60;;;;;;4963814;28;20082;-75
2023/06/13 07:24:29;;;;;;;8.73;4.00;;;19.30;48.60;;;;;;4967727;28;20075;-74
2023/06/13 07:26:57;;;;;;;7.77;3.90;;;19.30;48.90;;;;;;4969485;28;20055;-75
2023/06/13 07:29:24;;;;;;;6.72;3.97;;;19.40;48.80;;;;;;4970554;28;20138;-75
2023/06/13 07:31:51;;;;;;;10.02;4.57;;;19.40;48.60;;;;;;4968492;28;20047;-75
2023/06/13 07:34:18;;;;;;;9.18;3.85;;;19.50;48.40;;;;;;4965182;28;20051;-75
2023/06/13 07:36:45;;;;;;;6.43;4.20;;;19.50;48.40;;;;;;4969219;28;20063;-83
2023/06/13 07:39:13;;;;;;;10.70;4.10;;;19.50;48.20;;;;;;4967882;28;20146;-82
2023/06/13 07:41:40;;;;;;;7.20;3.60;;;19.60;48.20;;;;;;4969872;28;20065;-83
2023/06/13 07:44:08;;;;;;;5.90;3.85;;;19.70;48.20;;;;;;4953619;28;20055;-82
2023/06/13 07:46:35;;;;;;;9.85;4.00;;;19.70;47.90;;;;;;4967515;28;20110;-83
2023/06/13 07:49:03;;;;;;;6.78;3.55;;;19.80;47.90;;;;;;4970033;28;20047;-82
2023/06/13 07:51:30;;;;;;;6.50;3.73;;;19.90;47.80;;;;;;4969169;28;20170;-83
2023/06/13 07:53:57;;;;;;;9.10;3.50;;;20.00;47.80;;;;;;4969997;28;20190;-82
2023/06/13 07:56:24;;;;;;;6.53;3.83;;;20.00;47.80;;;;;;4949058;28;20512;-83
2023/06/13 07:58:51;;;;;;;6.22;3.42;;;20.10;47.60;;;;;;4952766;28;20048;-83
2023/06/13 08:01:22;;;;;;;6.85;3.60;;;20.20;47.10;;;;;;4959752;28;20055;-85
2023/06/13 08:03:49;;;;;;;7.80;3.43;;;20.30;46.90;;;;;;4964659;28;20051;-83
2023/06/13 08:06:16;;;;;;;8.27;4.10;;;20.30;46.50;;;;;;4964218;28;20469;-82
2023/06/13 08:08:43;;;;;;;5.78;3.60;;;20.50;46.50;;;;;;4961203;28;20878;-83
2023/06/13 08:11:10;;;;;;;7.38;3.42;;;20.50;46.40;;;;;;4958552;28;20051;-82
2023/06/13 08:13:37;;;;;;;6.28;3.78;;;20.50;46.50;;;;;;4940812;28;20047;-83
2023/06/13 08:16:05;;;;;;;6.17;3.57;;;20.60;46.80;;;;;;4969666;28;20051;-83
2023/06/13 08:18:34;;;;;;;5.47;3.63;;;20.70;47.30;;;;;;4970786;28;20055;-86
2023/06/13 08:21:01;;;;;;;9.18;3.53;;;20.80;47.00;;;;;;4966714;28;20055;-85
2023/06/13 08:23:28;;;;;;;7.07;3.30;;;20.90;47.00;;;;;;4950802;28;20149;-86
2023/06/13 08:25:55;;;;;;;6.18;3.55;;;21.00;46.80;;;;;;4967772;28;20066;-83
2023/06/13 08:28:23;;;;;;;5.77;3.30;;;21.00;46.40;;;;;;4968342;28;20047;-84
2023/06/13 08:30:51;;;;;;;10.32;3.55;;;21.10;46.40;;;;;;4964231;28;20075;-85
2023/06/13 08:33:21;;;;;;;7.68;3.40;;;21.10;46.30;;;;;;4951781;28;20524;-85
2023/06/13 08:35:50;;;;;;;6.35;3.30;;;21.10;46.30;;;;;;4942983;28;20198;-86
2023/06/13 08:38:17;;;;;;;8.52;3.10;;;21.20;46.20;;;;;;4948301;28;20142;-85
2023/06/13 08:40:44;;;;;;;6.23;3.33;;;21.30;45.90;;;;;;4948497;28;20063;-86
2023/06/13 08:43:12;;;;;;;8.02;2.90;;;21.30;45.30;;;;;;4948466;28;20054;-84
2023/06/13 08:45:41;;;;;;;6.88;3.00;;;21.40;45.10;;;;;;4952370;28;20063;-86
2023/06/13 08:48:08;;;;;;;6.78;3.17;;;21.50;44.90;;;;;;4951839;28;20055;-86
2023/06/13 08:50:36;;;;;;;8.45;3.58;;;21.50;45.10;;;;;;4949005;28;20136;-85
2023/06/13 08:53:04;;;;;;;5.37;3.20;;;21.50;44.60;;;;;;4963915;28;20129;-86
2023/06/13 08:55:35;;;;;;;7.68;3.10;;;21.60;44.60;;;;;;4969185;28;20061;-85
2023/06/13 08:58:03;;;;;;;7.28;3.00;;;21.70;44.60;;;;;;4969798;28;20051;-86
2023/06/13 09:00:33;;;;;;;6.63;3.22;;;21.80;43.90;;;;;;4955364;28;20218;-86
2023/06/13 09:03:03;;;;;;;6.15;3.10;;;21.90;44.10;;;;;;4943971;28;20047;-86
2023/06/13 09:05:32;;;;;;;5.87;3.10;;;21.90;44.30;;;;;;4969601;28;20055;-86
2023/06/13 09:08:00;;;;;;;7.25;3.47;;;22.00;44.30;;;;;;4968936;28;20051;-85
2023/06/13 09:10:29;;;;;;;7.18;3.40;;;22.10;44.10;;;;;;4968824;28;20986;-86
2023/06/13 09:12:57;;;;;;;6.60;3.50;;;22.10;43.60;;;;;;4965381;28;20058;-86
2023/06/13 09:15:26;;;;;;;7.15;3.17;;;22.20;43.20;;;;;;4968684;28;20130;-85
2023/06/13 09:17:55;;;;;;;6.30;3.13;;;22.30;42.70;;;;;;4951878;28;20136;-85
2023/06/13 09:20:22;;;;;;;6.25;3.33;;;22.50;42.10;;;;;;4951238;28;20055;-84
2023/06/13 09:22:50;;;;;;;10.57;3.42;;;22.50;41.90;;;;;;4951642;28;20062;-85
2023/06/13 09:25:18;;;;;;;5.70;3.25;;;22.60;42.10;;;;;;4967608;28;20061;-85
2023/06/13 09:27:47;;;;;;;6.75;3.30;;;22.70;42.20;;;;;;4951611;28;20050;-85
2023/06/13 09:30:16;;;;;;;7.53;3.20;;;22.80;42.10;;;;;;4967571;28;20061;-84
2023/06/13 09:32:49;;;;;;;5.63;3.20;;;22.90;41.80;;;;;;4969251;28;20051;-85
2023/06/13 09:35:16;;;;;;;6.70;3.00;;;23.00;41.30;;;;;;4969108;28;20087;-83
2023/06/13 09:37:43;;;;;;;7.07;3.13;;;23.00;41.60;;;;;;4968369;28;20049;-83
2023/06/13 09:40:13;;;;;;;6.05;2.85;;;23.10;41.00;;;;;;4968881;28;20069;-84
2023/06/13 09:42:43;;;;;;;6.63;3.27;;;23.20;40.50;;;;;;4968743;28;20059;-84
2023/06/13 09:45:14;;;;;;;7.18;3.03;;;23.30;40.60;;;;;;4968718;28;20551;-84
2023/06/13 09:47:43;;;;;;;5.68;3.38;;;23.40;40.60;;;;;;4968445;28;20051;-86
2023/06/13 09:50:11;;;;;;;7.30;3.22;;;23.40;40.30;;;;;;4967869;28;20428;-84
2023/06/13 09:52:39;;;;;;;5.93;3.10;;;23.50;39.90;;;;;;4953229;28;20047;-85
2023/06/13 09:55:07;;;;;;;5.33;3.10;;;23.60;40.70;;;;;;4956881;28;20051;-85
2023/06/13 09:57:34;;;;;;;6.38;3.38;;;23.60;40.50;;;;;;4960979;28;20090;-85
2023/06/13 10:00:02;;;;;;;6.18;3.47;;;23.60;39.90;;;;;;4966922;28;20054;-84
2023/06/13 10:02:40;;;;;;;6.82;3.25;;;23.80;39.50;;;;;;4966738;28;20043;-83
2023/06/13 10:05:07;;;;;;;7.13;3.10;;;23.90;39.20;;;;;;4967601;28;20647;-82
2023/06/13 10:07:34;;;;;;;8.93;3.33;;;23.90;39.10;;;;;;4969546;28;20051;-80
2023/06/13 10:10:02;;;;;;;4.90;3.35;;;24.00;39.30;;;;;;4950799;28;20058;-80
2023/06/13 10:12:32;;;;;;;6.68;3.28;;;24.00;39.10;;;;;;4963389;28;20110;-78
2023/06/13 10:15:02;;;;;;;5.32;3.03;;;24.00;38.60;;;;;;4960670;28;20051;-80
2023/06/13 10:17:32;;;;;;;6.00;3.40;;;24.10;38.70;;;;;;4979530;28;20047;-81
2023/06/13 10:20:05;;;;;;;6.13;3.20;;;24.20;38.60;;;;;;4960870;28;20118;-81
2023/06/13 10:22:34;;;;;;;53.60;8.05;;;24.20;38.80;;;;;;4957756;28;20529;-80
2023/06/13 10:25:02;;;;;;;8.52;3.55;;;24.20;38.70;;;;;;4960389;28;20044;-81
2023/06/13 10:27:30;;;;;;;9.15;3.72;;;24.40;38.50;;;;;;4967438;28;20043;-81
2023/06/13 10:30:15;;;;;;;6.70;3.50;;;24.40;38.30;;;;;;4950969;28;20134;-81
2023/06/13 10:32:57;;;;;;;5.90;3.40;;;24.50;38.50;;;;;;4955576;28;20047;-81
2023/06/13 10:35:54;;;;;;;6.32;3.13;;;24.50;38.30;;;;;;4957883;28;20047;-80
2023/06/13 10:38:59;;;;;;;6.00;3.38;;;24.60;38.40;;;;;;4964878;28;20059;-80
2023/06/13 10:42:00;;;;;;;5.93;3.50;;;24.70;38.70;;;;;;4966457;28;20061;-80
2023/06/13 10:44:37;;;;;;;6.22;3.60;;;24.80;38.60;;;;;;4963786;28;20811;-78
2023/06/13 10:47:06;;;;;;;5.93;3.27;;;24.80;38.00;;;;;;4946428;28;20046;-78
2023/06/13 10:49:41;;;;;;;6.47;3.42;;;24.90;37.30;;;;;;4980331;28;20445;-80
2023/06/13 10:52:46;;;;;;;6.05;3.65;;;25.00;37.80;;;;;;4965614;28;20058;-80
2023/06/13 10:55:25;;;;;;;6.32;3.50;;;25.00;38.00;;;;;;4961828;28;20062;-80
2023/06/13 10:57:53;;;;;;;11.90;4.25;;;25.10;37.70;;;;;;4967364;28;20047;-80
2023/06/13 11:00:25;;;;;;;5.33;3.30;;;25.20;37.70;;;;;;4962555;28;20465;-80
2023/06/13 11:02:58;;;;;;;8.40;3.83;;;25.30;37.90;;;;;;4970540;28;20158;-80
2023/06/13 11:05:26;;;;;;;6.82;3.95;;;25.40;37.40;;;;;;4971537;28;20058;-81
2023/06/13 11:07:55;;;;;;;13.32;4.28;;;25.40;37.00;;;;;;4949688;28;20130;-81
2023/06/13 11:10:25;;;;;;;8.52;4.00;;;25.60;36.50;;;;;;4961799;28;20050;-80
2023/06/13 11:12:53;;;;;;;5.97;3.90;;;25.60;36.40;;;;;;4967781;28;20134;-81
2023/06/13 11:15:22;;;;;;;6.60;3.80;;;25.70;36.50;;;;;;4965980;28;20063;-82
2023/06/13 11:18:26;;;;;;;15.80;4.40;;;25.80;36.50;;;;;;4968533;28;20062;-81
2023/06/13 11:20:55;;;;;;;6.90;3.72;;;25.90;37.00;;;;;;4965557;28;20051;-82
2023/06/13 11:23:24;;;;;;;6.63;3.65;;;26.00;36.30;;;;;;4950431;28;20568;-81
2023/06/13 11:25:53;;;;;;;5.67;3.50;;;26.00;35.80;;;;;;4961945;28;20048;-81
2023/06/13 11:28:20;;;;;;;8.30;3.78;;;26.10;35.70;;;;;;4953073;28;20102;-82
2023/06/13 11:30:48;;;;;;;7.03;3.80;;;26.20;36.10;;;;;;4962880;28;20062;-81
2023/06/13 11:33:17;;;;;;;9.77;4.25;;;26.30;36.00;;;;;;4961729;28;20051;-81
2023/06/13 11:35:49;;;;;;;6.53;3.70;;;26.40;35.60;;;;;;4970606;28;20429;-81
2023/06/13 11:38:22;;;;;;;5.27;3.83;;;26.40;35.80;;;;;;4969083;28;20062;-81
2023/06/13 11:40:56;;;;;;;7.55;3.67;;;26.50;35.90;;;;;;4970226;28;20131;-82
2023/06/13 11:43:25;;;;;;;7.35;3.63;;;26.50;35.30;;;;;;4970476;28;20055;-82
2023/06/13 11:45:58;;;;;;;6.65;4.00;;;26.50;35.50;;;;;;4970611;28;20158;-82
2023/06/13 11:48:26;;;;;;;7.13;3.92;;;26.60;35.20;;;;;;4956323;28;20136;-82
2023/06/13 11:50:53;;;;;;;9.53;3.90;;;26.70;35.00;;;;;;4968854;28;20102;-82
2023/06/13 11:53:22;;;;;;;15.27;5.05;;;26.70;34.00;;;;;;4965896;28;20047;-81
2023/06/13 11:55:49;;;;;;;9.68;4.20;;;26.80;33.80;;;;;;4963214;28;20082;-82
2023/06/13 11:58:17;;;;;;;6.93;3.67;;;26.80;34.50;;;;;;4978230;28;20055;-81
2023/06/13 12:00:53;;;;;;;5.75;3.90;;;26.90;34.50;;;;;;4952160;28;20056;-82
2023/06/13 12:03:22;;;;;;;6.30;4.10;;;27.00;34.80;;;;;;4969806;28;20145;-81
2023/06/13 12:05:50;;;;;;;7.82;3.72;;;27.10;35.20;;;;;;4981549;28;20040;-81
2023/06/13 12:08:18;;;;;;;5.72;3.67;;;27.10;34.70;;;;;;4958596;28;20051;-81
2023/06/13 12:10:47;;;;;;;7.45;3.75;;;27.20;34.50;;;;;;4962237;28;20123;-81
2023/06/13 12:13:17;;;;;;;6.50;3.80;;;27.20;34.10;;;;;;4954708;28;20047;-81
2023/06/13 12:15:45;;;;;;;5.67;3.97;;;27.30;33.70;;;;;;4966566;28;20051;-81
2023/06/13 12:18:12;;;;;;;6.65;3.75;;;27.30;34.30;;;;;;4969559;28;20127;-81
2023/06/13 12:20:49;;;;;;;6.60;3.50;;;27.40;34.60;;;;;;4960764;28;20454;-81
2023/06/13 12:23:17;;;;;;;8.63;3.90;;;27.40;34.40;;;;;;4968461;28;20066;-81
2023/06/13 12:25:46;;;;;;;7.28;4.00;;;27.40;34.90;;;;;;4964683;28;20049;-81
2023/06/13 12:28:15;;;;;;;5.83;3.60;;;27.50;34.70;;;;;;4954883;28;20082;-81
2023/06/13 12:30:45;;;;;;;5.40;3.42;;;27.60;34.40;;;;;;4968199;28;20048;-81
2023/06/13 12:33:14;;;;;;;15.27;4.55;;;27.70;34.00;;;;;;4961219;28;20051;-81
2023/06/13 12:35:51;;;;;;;21.83;5.10;;;27.70;34.00;;;;;;4969307;28;20058;-81
2023/06/13 12:38:19;;;;;;;9.95;4.03;;;27.80;34.70;;;;;;4969265;28;20063;-80
2023/06/13 12:40:51;;;;;;;6.93;4.00;;;27.80;35.10;;;;;;4950609;28;20047;-81
2023/06/13 12:43:23;;;;;;;9.10;4.07;;;27.90;34.70;;;;;;4971270;28;20062;-81
2023/06/13 12:45:52;;;;;;;6.30;3.95;;;28.00;34.00;;;;;;4905330;28;20491;-81
2023/06/13 12:48:20;;;;;;;6.00;3.63;;;28.00;33.90;;;;;;4985714;28;20051;-81
2023/06/13 12:50:47;;;;;;;6.85;3.60;;;28.10;34.20;;;;;;4986495;28;20053;-81
2023/06/13 12:53:19;;;;;;;8.40;3.90;;;28.10;33.80;;;;;;4986211;28;20066;-82
2023/06/13 12:55:48;;;;;;;6.20;3.70;;;28.10;34.20;;;;;;4997022;28;20059;-82